Time,TemperatureF,DewpointF,PressureIn,WindDirection,WindDirectionDegrees,WindSpeedMPH,WindSpeedGustMPH,Humidity,HourlyPrecipIn,Conditions,Clouds,dailyrainin,SoftwareType,DateUTC
2013-07-13 00:00:00,76.0,63.8,29.75,SE,130,3.0,10.0,66,0.00,,SKC,0.00,VWS V14.01,2013-07-13 05:00:00,
2013-07-13 00:05:00,76.0,64.7,29.75,SE,139,5.0,7.0,68,0.00,,SKC,0.00,VWS V14.01,2013-07-13 05:05:00,
2013-07-13 00:10:00,76.1,63.9,29.75,SE,133,2.0,10.0,66,0.00,,SKC,0.00,VWS V14.01,2013-07-13 05:10:00,
2013-07-13 00:15:00,76.1,63.9,29.75,SE,136,5.0,10.0,66,0.00,,SKC,0.00,VWS V14.01,2013-07-13 05:15:00,
2013-07-13 00:20:00,76.0,64.3,29.75,SE,143,3.0,10.0,67,0.00,,SKC,0.00,VWS V14.01,2013-07-13 05:20:00,
2013-07-13 00:25:00,76.0,64.3,29.75,SE,144,8.0,15.0,67,0.00,,SKC,0.00,VWS V14.01,2013-07-13 05:25:00,
2013-07-13 00:30:00,75.9,64.2,29.76,SE,131,5.0,7.0,67,0.00,,SKC,0.00,VWS V14.01,2013-07-13 05:30:00,
2013-07-13 00:35:00,75.8,64.1,29.76,SE,132,2.0,7.0,67,0.00,,SKC,0.00,VWS V14.01,2013-07-13 05:35:00,
2013-07-13 00:40:00,75.7,64.0,29.76,ESE,117,0.0,7.0,67,0.00,,SKC,0.00,VWS V14.01,2013-07-13 05:40:00,
2013-07-13 00:45:00,75.7,64.4,29.76,ESE,119,0.0,7.0,68,0.00,,SKC,0.00,VWS V14.01,2013-07-13 05:45:00,
2013-07-13 00:51:00,75.6,64.3,29.75,ESE,120,4.0,7.0,68,0.00,,SKC,0.00,VWS V14.01,2013-07-13 05:51:00,
2013-07-13 00:56:00,75.5,65.0,29.75,SSE,153,3.0,8.0,70,0.00,,SKC,0.00,VWS V14.01,2013-07-13 05:56:00,
2013-07-13 01:00:00,76.0,63.8,29.75,SE,130,3.0,10.0,66,0.00,,SKC,0.00,VWS V14.01,2013-07-13 06:00:00,
2013-07-13 01:01:00,75.4,64.5,29.75,SSE,151,3.0,5.0,69,0.00,,SKC,0.00,VWS V14.01,2013-07-13 06:01:00,
2013-07-13 01:06:00,75.3,64.8,29.75,SSE,153,6.0,9.0,70,0.00,,SKC,0.00,VWS V14.01,2013-07-13 06:06:00,
2013-07-13 01:11:00,75.2,63.9,29.75,SE,126,3.0,9.0,68,0.00,,SKC,0.00,VWS V14.01,2013-07-13 06:11:00,
2013-07-13 01:16:00,75.1,64.2,29.75,ESE,120,0.0,9.0,69,0.00,,SKC,0.00,VWS V14.01,2013-07-13 06:16:00,
2013-07-13 01:21:00,75.1,64.2,29.74,ESE,123,0.0,9.0,69,0.00,,SKC,0.00,VWS V14.01,2013-07-13 06:21:00,
2013-07-13 01:26:00,75.0,64.6,29.74,ESE,116,0.0,9.0,70,0.00,,SKC,0.00,VWS V14.01,2013-07-13 06:26:00,
2013-07-13 01:30:00,75.9,64.2,29.76,SE,131,7.0,15.0,67,0.00,,SKC,0.00,VWS V14.01,2013-07-13 06:30:00,
2013-07-13 01:31:00,74.9,64.5,29.75,ESE,116,0.0,1.0,70,0.00,,SKC,0.00,VWS V14.01,2013-07-13 06:31:00,
2013-07-13 01:36:00,74.8,64.4,29.75,ESE,116,0.0,2.0,70,0.00,,SKC,0.00,VWS V14.01,2013-07-13 06:36:00,
2013-07-13 01:41:00,74.7,64.3,29.76,ESE,116,0.0,2.0,70,0.00,,SKC,0.00,VWS V14.01,2013-07-13 06:41:00,
2013-07-13 01:46:00,74.6,64.6,29.76,ESE,116,0.0,2.0,71,0.00,,SKC,0.00,VWS V14.01,2013-07-13 06:46:00,
2013-07-13 01:51:00,74.4,64.8,29.77,SE,135,0.0,6.0,72,0.00,,SKC,0.00,VWS V14.01,2013-07-13 06:51:00,
2013-07-13 01:56:00,74.1,65.3,29.75,SSE,153,0.0,9.0,74,0.00,,SKC,0.00,VWS V14.01,2013-07-13 06:56:00,
2013-07-13 02:00:00,75.4,64.5,29.75,SSE,151,5.0,8.0,69,0.00,,SKC,0.00,VWS V14.01,2013-07-13 07:00:00,
2013-07-13 02:01:00,73.6,65.9,29.75,SE,142,3.0,5.0,77,0.01,,SKC,0.01,VWS V14.01,2013-07-13 07:01:00,
2013-07-13 02:06:00,73.1,65.5,29.73,SE,136,10.0,13.0,77,0.01,,SKC,0.01,VWS V14.01,2013-07-13 07:06:00,
2013-07-13 02:11:00,72.4,65.9,29.77,SSE,159,5.0,13.0,80,0.02,,SKC,0.02,VWS V14.01,2013-07-13 07:11:00,
2013-07-13 02:16:00,71.0,65.2,29.79,SSE,156,0.0,13.0,82,0.02,,SKC,0.02,VWS V14.01,2013-07-13 07:16:00,
2013-07-13 02:21:00,70.0,65.3,29.79,WSW,252,4.0,13.0,85,0.02,,SKC,0.02,VWS V14.01,2013-07-13 07:21:00,
2013-07-13 02:26:00,69.8,65.4,29.77,SSW,200,6.0,13.0,86,0.02,,SKC,0.02,VWS V14.01,2013-07-13 07:26:00,
2013-07-13 02:30:00,74.9,64.5,29.75,ESE,116,0.0,9.0,70,0.00,,SKC,0.00,VWS V14.01,2013-07-13 07:30:00,
2013-07-13 02:31:00,69.6,65.6,29.76,SSE,155,0.0,0.0,87,0.02,,SKC,0.02,VWS V14.01,2013-07-13 07:31:00,
2013-07-13 02:36:00,69.5,65.8,29.76,SSE,153,0.0,2.0,88,0.02,,SKC,0.02,VWS V14.01,2013-07-13 07:36:00,
2013-07-13 02:41:00,69.3,65.9,29.75,SSE,153,0.0,2.0,89,0.03,,SKC,0.03,VWS V14.01,2013-07-13 07:41:00,
2013-07-13 02:46:00,68.9,65.8,29.75,SSE,157,2.0,6.0,90,0.03,,SKC,0.03,VWS V14.01,2013-07-13 07:46:00,
2013-07-13 02:51:00,68.8,65.4,29.73,SSE,157,0.0,6.0,89,0.03,,SKC,0.03,VWS V14.01,2013-07-13 07:51:00,
2013-07-13 02:56:00,68.8,65.8,29.73,SSE,157,0.0,6.0,90,0.03,,SKC,0.03,VWS V14.01,2013-07-13 07:56:00,
2013-07-13 03:00:00,73.7,66.1,29.75,SE,141,0.0,9.0,77,0.01,,SKC,0.01,VWS V14.01,2013-07-13 08:00:00,
2013-07-13 03:01:00,68.8,66.1,29.73,SSE,158,0.0,2.0,91,0.02,,SKC,0.03,VWS V14.01,2013-07-13 08:01:00,
2013-07-13 03:06:00,68.8,66.1,29.75,SSE,157,0.0,5.0,91,0.02,,SKC,0.03,VWS V14.01,2013-07-13 08:06:00,
2013-07-13 03:11:00,68.8,66.1,29.75,SSE,157,3.0,6.0,91,0.02,,SKC,0.03,VWS V14.01,2013-07-13 08:11:00,
2013-07-13 03:16:00,68.8,66.1,29.75,SSE,157,0.0,6.0,91,0.02,,SKC,0.03,VWS V14.01,2013-07-13 08:16:00,
2013-07-13 03:21:00,68.8,66.1,29.78,SSE,157,0.0,6.0,91,0.02,,SKC,0.03,VWS V14.01,2013-07-13 08:21:00,
2013-07-13 03:26:00,68.6,66.2,29.79,SSE,157,0.0,6.0,92,0.02,,SKC,0.03,VWS V14.01,2013-07-13 08:26:00,
2013-07-13 03:30:00,69.6,65.6,29.76,SSE,155,0.0,13.0,87,0.02,,SKC,0.02,VWS V14.01,2013-07-13 08:30:00,
2013-07-13 03:32:00,68.6,66.2,29.78,SSE,157,0.0,0.0,92,0.01,,SKC,0.03,VWS V14.01,2013-07-13 08:32:00,
2013-07-13 03:37:00,68.7,66.3,29.78,SW,236,8.0,12.0,92,0.01,,SKC,0.03,VWS V14.01,2013-07-13 08:37:00,
2013-07-13 03:42:00,69.1,66.4,29.77,SW,226,4.0,12.0,91,0.02,,SKC,0.04,VWS V14.01,2013-07-13 08:42:00,
2013-07-13 03:47:00,68.9,66.2,29.78,SW,227,0.0,12.0,91,0.05,,SKC,0.07,VWS V14.01,2013-07-13 08:47:00,
2013-07-13 03:52:00,68.5,66.1,29.78,WSW,242,2.0,12.0,92,0.08,,SKC,0.10,VWS V14.01,2013-07-13 08:52:00,
2013-07-13 03:57:00,68.0,65.9,29.79,SW,236,1.0,12.0,93,0.13,,SKC,0.15,VWS V14.01,2013-07-13 08:57:00,
2013-07-13 04:00:00,68.8,66.1,29.73,SSE,158,2.0,6.0,91,0.03,,SKC,0.03,VWS V14.01,2013-07-13 09:00:00,
2013-07-13 04:02:00,67.9,66.1,29.80,SW,235,0.0,2.0,94,0.14,,SKC,0.17,VWS V14.01,2013-07-13 09:02:00,
2013-07-13 04:07:00,67.9,66.1,29.80,SW,235,0.0,4.0,94,0.15,,SKC,0.18,VWS V14.01,2013-07-13 09:07:00,
2013-07-13 04:12:00,67.8,66.0,29.81,SW,235,0.0,4.0,94,0.17,,SKC,0.20,VWS V14.01,2013-07-13 09:12:00,
2013-07-13 04:17:00,67.7,65.9,29.82,SW,235,0.0,5.0,94,0.18,,SKC,0.21,VWS V14.01,2013-07-13 09:17:00,
2013-07-13 04:22:00,67.7,65.9,29.81,SW,235,1.0,5.0,94,0.21,,SKC,0.24,VWS V14.01,2013-07-13 09:22:00,
2013-07-13 04:27:00,67.7,66.2,29.80,SW,225,0.0,5.0,95,0.22,,SKC,0.25,VWS V14.01,2013-07-13 09:27:00,
2013-07-13 04:30:00,67.8,66.0,29.79,SW,224,1.0,6.0,94,0.22,,SKC,0.25,VWS V14.01,2013-07-13 09:30:00,
2013-07-13 04:36:00,67.7,66.2,29.80,SSW,196,1.0,5.0,95,0.22,,SKC,0.25,VWS V14.01,2013-07-13 09:36:00,
2013-07-13 04:41:00,67.6,66.1,29.79,SSW,196,2.0,6.0,95,0.22,,SKC,0.25,VWS V14.01,2013-07-13 09:41:00,
2013-07-13 04:46:00,67.4,65.9,29.78,South,176,2.0,7.0,95,0.23,,SKC,0.26,VWS V14.01,2013-07-13 09:46:00,
2013-07-13 04:51:00,67.3,65.8,29.79,South,177,2.0,7.0,95,0.24,,SKC,0.27,VWS V14.01,2013-07-13 09:51:00,
2013-07-13 04:56:00,67.3,65.8,29.79,South,178,2.0,7.0,95,0.24,,SKC,0.27,VWS V14.01,2013-07-13 09:56:00,
2013-07-13 05:00:00,67.9,65.8,29.80,SW,235,0.0,12.0,93,0.14,,SKC,0.16,VWS V14.01,2013-07-13 10:00:00,
2013-07-13 05:01:00,67.3,65.8,29.79,South,181,0.0,1.0,95,0.11,,SKC,0.27,VWS V14.01,2013-07-13 10:01:00,
2013-07-13 05:06:00,67.2,65.7,29.78,South,181,1.0,1.0,95,0.11,,SKC,0.27,VWS V14.01,2013-07-13 10:06:00,
2013-07-13 05:11:00,67.2,65.7,29.78,South,180,0.0,3.0,95,0.11,,SKC,0.27,VWS V14.01,2013-07-13 10:11:00,
2013-07-13 05:16:00,67.4,65.9,29.78,South,180,0.0,3.0,95,0.11,,SKC,0.27,VWS V14.01,2013-07-13 10:16:00,
2013-07-13 05:21:00,67.5,66.0,29.79,South,181,0.0,4.0,95,0.12,,SKC,0.28,VWS V14.01,2013-07-13 10:21:00,
2013-07-13 05:26:00,67.5,66.0,29.79,South,169,0.0,6.0,95,0.12,,SKC,0.28,VWS V14.01,2013-07-13 10:26:00,
2013-07-13 05:30:00,67.8,66.0,29.79,SW,224,1.0,6.0,94,0.22,,SKC,0.25,VWS V14.01,2013-07-13 10:30:00,
2013-07-13 05:31:00,67.4,65.9,29.79,South,186,4.0,4.0,95,0.03,,SKC,0.28,VWS V14.01,2013-07-13 10:31:00,
2013-07-13 05:36:00,67.4,65.9,29.79,SSW,193,0.0,4.0,95,0.03,,SKC,0.28,VWS V14.01,2013-07-13 10:36:00,
2013-07-13 05:41:00,67.4,65.9,29.79,SSW,193,0.0,4.0,95,0.03,,SKC,0.28,VWS V14.01,2013-07-13 10:41:00,
2013-07-13 05:46:00,67.3,65.8,29.80,SSW,200,0.0,5.0,95,0.03,,SKC,0.28,VWS V14.01,2013-07-13 10:46:00,
2013-07-13 05:51:00,67.3,65.8,29.80,SSW,200,0.0,5.0,95,0.03,,SKC,0.28,VWS V14.01,2013-07-13 10:51:00,
2013-07-13 05:56:00,67.2,65.7,29.80,SSW,197,0.0,5.0,95,0.03,,SKC,0.28,VWS V14.01,2013-07-13 10:56:00,
2013-07-13 06:00:00,67.3,65.8,29.79,South,180,1.0,7.0,95,0.24,,SKC,0.27,VWS V14.01,2013-07-13 11:00:00,
2013-07-13 06:01:00,67.3,65.8,29.80,SSE,158,0.0,4.0,95,0.01,,SKC,0.28,VWS V14.01,2013-07-13 11:01:00,
2013-07-13 06:06:00,67.2,65.7,29.80,SSE,159,0.0,7.0,95,0.01,,SKC,0.28,VWS V14.01,2013-07-13 11:06:00,
2013-07-13 06:12:00,67.2,65.7,29.80,SSE,158,0.0,7.0,95,0.01,,SKC,0.28,VWS V14.01,2013-07-13 11:12:00,
2013-07-13 06:17:00,67.2,65.7,29.79,SSE,150,2.0,7.0,95,0.01,,SKC,0.28,VWS V14.01,2013-07-13 11:17:00,
2013-07-13 06:22:00,67.2,65.7,29.79,SE,144,2.0,7.0,95,0.01,,SKC,0.28,VWS V14.01,2013-07-13 11:22:00,
2013-07-13 06:27:00,67.4,65.9,29.80,SE,144,5.0,7.0,95,0.01,,SKC,0.28,VWS V14.01,2013-07-13 11:27:00,
2013-07-13 06:30:00,67.4,65.9,29.80,South,186,2.0,6.0,95,0.12,,SKC,0.28,VWS V14.01,2013-07-13 11:30:00,
2013-07-13 06:32:00,67.4,65.9,29.80,SE,144,0.0,0.0,95,0.00,,SKC,0.28,VWS V14.01,2013-07-13 11:32:00,
2013-07-13 06:37:00,67.5,66.0,29.81,SE,144,1.0,6.0,95,0.00,,SKC,0.28,VWS V14.01,2013-07-13 11:37:00,
2013-07-13 06:42:00,67.6,66.1,29.81,SE,144,0.0,6.0,95,0.00,,SKC,0.28,VWS V14.01,2013-07-13 11:42:00,
2013-07-13 06:47:00,67.6,66.1,29.81,SE,144,0.0,7.0,95,0.00,,SKC,0.28,VWS V14.01,2013-07-13 11:47:00,
2013-07-13 06:52:00,67.7,66.2,29.81,SE,124,5.0,8.0,95,0.00,,SKC,0.28,VWS V14.01,2013-07-13 11:52:00,
2013-07-13 06:57:00,67.9,66.4,29.81,SE,125,9.0,9.0,95,0.00,,SKC,0.28,VWS V14.01,2013-07-13 11:57:00,
2013-07-13 07:00:00,67.3,65.8,29.80,SSE,158,4.0,6.0,95,0.03,,SKC,0.28,VWS V14.01,2013-07-13 12:00:00,
2013-07-13 07:02:00,67.9,66.4,29.81,SE,126,8.0,9.0,95,0.00,,SKC,0.28,VWS V14.01,2013-07-13 12:02:00,
2013-07-13 07:07:00,67.8,66.3,29.81,ESE,123,8.0,9.0,95,0.00,,SKC,0.28,VWS V14.01,2013-07-13 12:07:00,
2013-07-13 07:12:00,67.8,66.3,29.81,ESE,121,10.0,10.0,95,0.00,,SKC,0.28,VWS V14.01,2013-07-13 12:12:00,
2013-07-13 07:17:00,67.7,66.2,29.81,SE,126,6.0,10.0,95,0.00,,SKC,0.28,VWS V14.01,2013-07-13 12:17:00,
2013-07-13 07:22:00,67.7,66.2,29.81,SE,125,8.0,10.0,95,0.00,,SKC,0.28,VWS V14.01,2013-07-13 12:22:00,
2013-07-13 07:27:00,67.6,66.1,29.82,SE,125,6.0,10.0,95,0.00,,SKC,0.28,VWS V14.01,2013-07-13 12:27:00,
2013-07-13 07:30:00,67.4,65.9,29.80,SE,144,0.0,7.0,95,0.01,,SKC,0.28,VWS V14.01,2013-07-13 12:30:00,
2013-07-13 07:32:00,67.5,66.0,29.82,SE,124,7.0,8.0,95,0.00,,SKC,0.28,VWS V14.01,2013-07-13 12:32:00,
2013-07-13 07:37:00,67.6,66.1,29.81,SE,125,7.0,9.0,95,0.00,,SKC,0.28,VWS V14.01,2013-07-13 12:37:00,
2013-07-13 07:42:00,67.7,66.2,29.81,SE,132,7.0,10.0,95,0.00,,SKC,0.28,VWS V14.01,2013-07-13 12:42:00,
2013-07-13 07:47:00,67.8,66.3,29.81,SE,125,5.0,10.0,95,0.00,,SKC,0.28,VWS V14.01,2013-07-13 12:47:00,
2013-07-13 07:52:00,67.7,66.2,29.81,SE,125,6.0,10.0,95,0.00,,SKC,0.28,VWS V14.01,2013-07-13 12:52:00,
2013-07-13 07:57:00,67.7,66.2,29.81,SE,125,6.0,10.0,95,0.00,,SKC,0.28,VWS V14.01,2013-07-13 12:57:00,
2013-07-13 08:00:00,67.9,66.4,29.81,SE,124,8.0,10.0,95,0.00,,SKC,0.28,VWS V14.01,2013-07-13 13:00:00,
2013-07-13 08:02:00,67.7,66.2,29.81,SE,125,6.0,7.0,95,0.00,,SKC,0.28,VWS V14.01,2013-07-13 13:02:00,
2013-07-13 08:07:00,67.8,66.3,29.82,SE,125,5.0,7.0,95,0.00,,SKC,0.28,VWS V14.01,2013-07-13 13:07:00,
2013-07-13 08:12:00,67.9,66.4,29.82,SE,125,5.0,8.0,95,0.00,,SKC,0.28,VWS V14.01,2013-07-13 13:12:00,
2013-07-13 08:17:00,67.9,66.4,29.82,SE,125,5.0,9.0,95,0.00,,SKC,0.28,VWS V14.01,2013-07-13 13:17:00,
2013-07-13 08:22:00,68.0,66.5,29.82,SE,126,7.0,9.0,95,0.00,,SKC,0.28,VWS V14.01,2013-07-13 13:22:00,
2013-07-13 08:27:00,68.1,66.6,29.82,SE,128,6.0,9.0,95,0.00,,SKC,0.28,VWS V14.01,2013-07-13 13:27:00,
2013-07-13 08:30:00,67.5,66.0,29.82,SE,124,6.0,10.0,95,0.00,,SKC,0.28,VWS V14.01,2013-07-13 13:30:00,
2013-07-13 08:32:00,68.2,66.7,29.81,SE,131,7.0,7.0,95,0.00,,SKC,0.28,VWS V14.01,2013-07-13 13:32:00,
2013-07-13 08:37:00,68.4,66.9,29.82,SE,132,6.0,8.0,95,0.00,,SKC,0.28,VWS V14.01,2013-07-13 13:37:00,
2013-07-13 08:43:00,68.8,67.3,29.82,SE,132,2.0,8.0,95,0.00,,SKC,0.28,VWS V14.01,2013-07-13 13:43:00,
2013-07-13 08:48:00,69.1,67.6,29.82,SE,132,0.0,8.0,95,0.00,,SKC,0.28,VWS V14.01,2013-07-13 13:48:00,
2013-07-13 08:53:00,69.4,67.9,29.81,SE,132,4.0,8.0,95,0.00,,SKC,0.28,VWS V14.01,2013-07-13 13:53:00,
2013-07-13 08:58:00,69.7,68.2,29.81,SE,132,0.0,8.0,95,0.00,,SKC,0.28,VWS V14.01,2013-07-13 13:58:00,
2013-07-13 09:00:00,67.7,66.2,29.81,SE,125,5.0,10.0,95,0.00,,SKC,0.28,VWS V14.01,2013-07-13 14:00:00,
2013-07-13 09:03:00,70.1,68.6,29.81,SE,132,2.0,5.0,95,0.00,,SKC,0.28,VWS V14.01,2013-07-13 14:03:00,
2013-07-13 09:08:00,70.5,69.0,29.81,SE,133,4.0,7.0,95,0.00,,SKC,0.28,VWS V14.01,2013-07-13 14:08:00,
2013-07-13 09:13:00,70.8,69.3,29.81,SE,133,0.0,7.0,95,0.00,,SKC,0.28,VWS V14.01,2013-07-13 14:13:00,
2013-07-13 09:18:00,71.2,69.7,29.81,SE,133,6.0,7.0,95,0.00,,SKC,0.28,VWS V14.01,2013-07-13 14:18:00,
2013-07-13 09:23:00,71.4,69.9,29.81,SE,135,0.0,9.0,95,0.00,,SKC,0.28,VWS V14.01,2013-07-13 14:23:00,
2013-07-13 09:28:00,71.3,69.5,29.81,SE,137,5.0,9.0,94,0.00,,SKC,0.28,VWS V14.01,2013-07-13 14:28:00,
2013-07-13 09:30:00,68.1,66.6,29.81,SE,131,4.0,9.0,95,0.00,,SKC,0.28,VWS V14.01,2013-07-13 14:30:00,
2013-07-13 09:33:00,71.6,69.8,29.80,SE,137,0.0,1.0,94,0.00,,SKC,0.28,VWS V14.01,2013-07-13 14:33:00,
2013-07-13 09:38:00,71.9,69.8,29.81,SE,137,0.0,4.0,93,0.00,,SKC,0.28,VWS V14.01,2013-07-13 14:38:00,
2013-07-13 09:43:00,72.2,69.8,29.81,SE,137,0.0,4.0,92,0.00,,SKC,0.28,VWS V14.01,2013-07-13 14:43:00,
2013-07-13 09:48:00,72.4,69.6,29.80,SE,138,6.0,9.0,91,0.00,,SKC,0.28,VWS V14.01,2013-07-13 14:48:00,
2013-07-13 09:53:00,72.6,69.5,29.80,SE,137,6.0,9.0,90,0.00,,SKC,0.28,VWS V14.01,2013-07-13 14:53:00,
2013-07-13 09:58:00,72.8,69.7,29.80,SE,133,6.0,9.0,90,0.00,,SKC,0.28,VWS V14.01,2013-07-13 14:58:00,
2013-07-13 10:00:00,69.9,68.4,29.81,SE,132,0.0,8.0,95,0.00,,SKC,0.28,VWS V14.01,2013-07-13 15:00:00,
2013-07-13 10:03:00,72.8,69.4,29.81,SE,137,5.0,11.0,89,0.00,,SKC,0.28,VWS V14.01,2013-07-13 15:03:00,
2013-07-13 10:08:00,72.9,69.5,29.80,SE,138,8.0,11.0,89,0.00,,SKC,0.28,VWS V14.01,2013-07-13 15:08:00,
2013-07-13 10:13:00,73.1,69.7,29.81,SE,130,5.0,11.0,89,0.00,,SKC,0.28,VWS V14.01,2013-07-13 15:13:00,
2013-07-13 10:18:00,73.3,69.9,29.81,SE,146,6.0,11.0,89,0.00,,SKC,0.28,VWS V14.01,2013-07-13 15:18:00,
2013-07-13 10:23:00,73.5,70.1,29.81,SE,138,5.0,11.0,89,0.00,,SKC,0.28,VWS V14.01,2013-07-13 15:23:00,
2013-07-13 10:28:00,73.7,69.9,29.81,SE,137,8.0,11.0,88,0.00,,SKC,0.28,VWS V14.01,2013-07-13 15:28:00,
2013-07-13 10:30:00,71.4,69.6,29.81,SE,137,0.0,9.0,94,0.00,,SKC,0.28,VWS V14.01,2013-07-13 15:30:00,
2013-07-13 10:33:00,73.8,70.0,29.81,SE,130,8.0,9.0,88,0.00,,SKC,0.28,VWS V14.01,2013-07-13 15:33:00,
2013-07-13 10:38:00,73.8,69.7,29.81,SE,130,7.0,9.0,87,0.00,,SKC,0.28,VWS V14.01,2013-07-13 15:38:00,
2013-07-13 10:43:00,73.7,69.6,29.81,SE,128,7.0,9.0,87,0.00,,SKC,0.28,VWS V14.01,2013-07-13 15:43:00,
2013-07-13 10:48:00,73.6,69.5,29.81,SE,126,8.0,10.0,87,0.00,,SKC,0.28,VWS V14.01,2013-07-13 15:48:00,
2013-07-13 10:53:00,73.4,69.6,29.81,ESE,123,7.0,10.0,88,0.00,,SKC,0.28,VWS V14.01,2013-07-13 15:53:00,
2013-07-13 10:58:00,73.1,69.3,29.81,ESE,115,6.0,10.0,88,0.00,,SKC,0.28,VWS V14.01,2013-07-13 15:58:00,
2013-07-13 11:00:00,72.8,69.4,29.80,SE,132,7.0,11.0,89,0.00,,SKC,0.28,VWS V14.01,2013-07-13 16:00:00,
2013-07-13 11:04:00,72.6,69.2,29.82,East,98,10.0,12.0,89,0.00,,SKC,0.28,VWS V14.01,2013-07-13 16:04:00,
2013-07-13 11:09:00,72.2,68.8,29.82,East,100,8.0,12.0,89,0.00,,SKC,0.28,VWS V14.01,2013-07-13 16:09:00,
2013-07-13 11:14:00,71.9,68.5,29.82,ESE,111,9.0,12.0,89,0.00,,SKC,0.28,VWS V14.01,2013-07-13 16:14:00,
2013-07-13 11:19:00,71.7,68.6,29.82,ESE,111,7.0,12.0,90,0.00,,SKC,0.28,VWS V14.01,2013-07-13 16:19:00,
2013-07-13 11:24:00,71.7,68.6,29.82,ESE,110,8.0,12.0,90,0.00,,SKC,0.28,VWS V14.01,2013-07-13 16:24:00,
2013-07-13 11:29:00,71.7,68.6,29.82,ESE,107,7.0,12.0,90,0.00,,SKC,0.28,VWS V14.01,2013-07-13 16:29:00,
2013-07-13 11:30:00,73.7,69.6,29.81,SE,135,7.0,11.0,87,0.00,,SKC,0.28,VWS V14.01,2013-07-13 16:30:00,
2013-07-13 11:34:00,71.7,68.6,29.82,East,100,11.0,11.0,90,0.00,,SKC,0.28,VWS V14.01,2013-07-13 16:34:00,
2013-07-13 11:39:00,71.5,68.4,29.82,ESE,103,8.0,11.0,90,0.00,,SKC,0.28,VWS V14.01,2013-07-13 16:39:00,
2013-07-13 11:44:00,71.3,68.5,29.83,ESE,103,6.0,12.0,91,0.00,,SKC,0.28,VWS V14.01,2013-07-13 16:44:00,
2013-07-13 11:49:00,71.3,68.5,29.83,ESE,114,7.0,12.0,91,0.00,,SKC,0.28,VWS V14.01,2013-07-13 16:49:00,
2013-07-13 11:54:00,71.3,68.5,29.83,ESE,111,9.0,12.0,91,0.00,,SKC,0.28,VWS V14.01,2013-07-13 16:54:00,
2013-07-13 11:59:00,71.3,68.5,29.83,SE,125,8.0,12.0,91,0.00,,SKC,0.28,VWS V14.01,2013-07-13 16:59:00,
2013-07-13 12:00:00,73.0,69.2,29.81,ESE,103,10.0,10.0,88,0.00,,SKC,0.28,VWS V14.01,2013-07-13 17:00:00,
2013-07-13 12:04:00,71.2,68.4,29.83,ESE,121,10.0,10.0,91,0.00,,SKC,0.28,VWS V14.01,2013-07-13 17:04:00,
2013-07-13 12:09:00,71.3,68.9,29.83,ESE,121,9.0,11.0,92,0.00,,SKC,0.28,VWS V14.01,2013-07-13 17:09:00,
2013-07-13 12:14:00,71.5,69.1,29.84,ESE,117,9.0,11.0,92,0.00,,SKC,0.28,VWS V14.01,2013-07-13 17:14:00,
2013-07-13 12:19:00,71.6,69.2,29.84,ESE,115,7.0,11.0,92,0.00,,SKC,0.28,VWS V14.01,2013-07-13 17:19:00,
2013-07-13 12:24:00,71.7,69.3,29.84,ESE,115,6.0,11.0,92,0.00,,SKC,0.28,VWS V14.01,2013-07-13 17:24:00,
2013-07-13 12:29:00,71.7,68.9,29.84,ESE,117,9.0,11.0,91,0.00,,SKC,0.28,VWS V14.01,2013-07-13 17:29:00,
2013-07-13 12:30:00,71.7,68.6,29.82,East,99,8.0,15.0,90,0.00,,SKC,0.28,VWS V14.01,2013-07-13 17:30:00,
2013-07-13 12:34:00,71.7,68.6,29.84,SE,130,9.0,10.0,90,0.00,,SKC,0.28,VWS V14.01,2013-07-13 17:34:00,
2013-07-13 12:39:00,71.7,68.6,29.85,SE,136,8.0,10.0,90,0.00,,SKC,0.28,VWS V14.01,2013-07-13 17:39:00,
2013-07-13 12:44:00,71.7,68.9,29.84,SE,133,10.0,10.0,91,0.00,,SKC,0.28,VWS V14.01,2013-07-13 17:44:00,
2013-07-13 12:49:00,71.8,69.0,29.84,SE,131,7.0,10.0,91,0.00,,SKC,0.28,VWS V14.01,2013-07-13 17:49:00,
2013-07-13 12:55:00,71.9,69.1,29.85,SE,131,5.0,10.0,91,0.00,,SKC,0.28,VWS V14.01,2013-07-13 17:55:00,
2013-07-13 13:00:00,72.0,69.2,29.85,SE,131,5.0,10.0,91,0.00,,SKC,0.28,VWS V14.01,2013-07-13 18:00:00,
2013-07-13 13:05:00,72.0,69.2,29.85,SE,132,7.0,8.0,91,0.00,,SKC,0.28,VWS V14.01,2013-07-13 18:05:00,
2013-07-13 13:10:00,72.1,69.3,29.85,SE,132,8.0,8.0,91,0.00,,SKC,0.28,VWS V14.01,2013-07-13 18:10:00,
2013-07-13 13:15:00,72.1,69.3,29.85,SE,132,6.0,8.0,91,0.00,,SKC,0.28,VWS V14.01,2013-07-13 18:15:00,
2013-07-13 13:20:00,72.2,69.8,29.85,SE,131,7.0,9.0,92,0.00,,SKC,0.28,VWS V14.01,2013-07-13 18:20:00,
2013-07-13 13:25:00,72.2,69.8,29.85,SE,130,5.0,9.0,92,0.00,,SKC,0.28,VWS V14.01,2013-07-13 18:25:00,
2013-07-13 13:30:00,72.1,69.7,29.85,SE,130,5.0,9.0,92,0.00,,SKC,0.28,VWS V14.01,2013-07-13 18:30:00,
2013-07-13 13:35:00,72.0,69.6,29.85,SE,130,4.0,7.0,92,0.00,,SKC,0.28,VWS V14.01,2013-07-13 18:35:00,
2013-07-13 13:40:00,71.9,69.8,29.85,SE,130,5.0,7.0,93,0.00,,SKC,0.28,VWS V14.01,2013-07-13 18:40:00,
2013-07-13 13:45:00,71.8,69.7,29.85,SE,130,7.0,7.0,93,0.00,,SKC,0.28,VWS V14.01,2013-07-13 18:45:00,
2013-07-13 13:50:00,71.6,69.5,29.85,SE,130,6.0,7.0,93,0.00,,SKC,0.28,VWS V14.01,2013-07-13 18:50:00,
2013-07-13 13:55:00,71.5,69.4,29.85,SE,130,4.0,7.0,93,0.00,,SKC,0.28,VWS V14.01,2013-07-13 18:55:00,
2013-07-13 14:00:00,71.4,69.6,29.85,SE,130,5.0,8.0,94,0.00,,SKC,0.28,VWS V14.01,2013-07-13 19:00:00,
2013-07-13 14:05:00,71.3,69.5,29.86,ESE,118,5.0,10.0,94,0.00,,SKC,0.28,VWS V14.01,2013-07-13 19:05:00,
2013-07-13 14:10:00,71.3,69.5,29.86,ESE,118,4.0,10.0,94,0.00,,SKC,0.28,VWS V14.01,2013-07-13 19:10:00,
2013-07-13 14:15:00,71.2,69.4,29.85,ESE,118,6.0,10.0,94,0.00,,SKC,0.28,VWS V14.01,2013-07-13 19:15:00,
2013-07-13 14:20:00,71.1,69.3,29.85,ESE,117,6.0,10.0,94,0.00,,SKC,0.28,VWS V14.01,2013-07-13 19:20:00,
2013-07-13 14:25:00,71.0,69.2,29.86,ESE,113,7.0,11.0,94,0.00,,SKC,0.28,VWS V14.01,2013-07-13 19:25:00,
2013-07-13 14:30:00,71.1,69.3,29.85,ESE,115,11.0,13.0,94,0.00,,SKC,0.28,VWS V14.01,2013-07-13 19:30:00,
2013-07-13 14:35:00,71.3,69.2,29.85,ESE,119,11.0,14.0,93,0.00,,SKC,0.28,VWS V14.01,2013-07-13 19:35:00,
2013-07-13 14:40:00,71.3,69.2,29.85,ESE,113,12.0,16.0,93,0.00,,SKC,0.28,VWS V14.01,2013-07-13 19:40:00,
2013-07-13 14:45:00,71.4,69.3,29.86,ESE,113,12.0,16.0,93,0.00,,SKC,0.28,VWS V14.01,2013-07-13 19:45:00,
2013-07-13 14:50:00,71.3,68.9,29.85,ESE,118,10.0,16.0,92,0.00,,SKC,0.28,VWS V14.01,2013-07-13 19:50:00,
2013-07-13 14:55:00,71.3,68.9,29.85,ESE,108,10.0,16.0,92,0.00,,SKC,0.28,VWS V14.01,2013-07-13 19:55:00,
2013-07-13 15:00:00,71.1,68.7,29.84,East,96,18.0,18.0,92,0.00,,SKC,0.28,VWS V14.01,2013-07-13 20:00:00,
2013-07-13 15:06:00,71.0,68.6,29.84,East,101,14.0,19.0,92,0.00,,SKC,0.28,VWS V14.01,2013-07-13 20:06:00,
2013-07-13 15:11:00,71.1,68.7,29.84,ESE,111,12.0,19.0,92,0.00,,SKC,0.28,VWS V14.01,2013-07-13 20:11:00,
2013-07-13 15:16:00,71.2,68.8,29.84,ESE,113,14.0,19.0,92,0.00,,SKC,0.28,VWS V14.01,2013-07-13 20:16:00,
2013-07-13 15:21:00,71.3,68.9,29.84,ESE,115,11.0,19.0,92,0.00,,SKC,0.28,VWS V14.01,2013-07-13 20:21:00,
2013-07-13 15:26:00,71.3,68.9,29.84,ESE,103,10.0,19.0,92,0.00,,SKC,0.28,VWS V14.01,2013-07-13 20:26:00,
2013-07-13 15:30:00,71.1,69.3,29.85,ESE,113,12.0,13.0,94,0.00,,SKC,0.28,VWS V14.01,2013-07-13 20:30:00,
2013-07-13 15:31:00,71.4,68.6,29.85,ESE,117,12.0,12.0,91,0.00,,SKC,0.28,VWS V14.01,2013-07-13 20:31:00,
2013-07-13 15:36:00,71.5,68.4,29.85,ESE,117,9.0,20.0,90,0.00,,SKC,0.28,VWS V14.01,2013-07-13 20:36:00,
2013-07-13 15:41:00,71.8,69.0,29.85,ESE,119,7.0,20.0,91,0.00,,SKC,0.28,VWS V14.01,2013-07-13 20:41:00,
2013-07-13 15:46:00,72.1,69.3,29.86,ESE,117,8.0,20.0,91,0.00,,SKC,0.28,VWS V14.01,2013-07-13 20:46:00,
2013-07-13 15:51:00,72.3,69.2,29.86,ESE,117,9.0,20.0,90,0.00,,SKC,0.28,VWS V14.01,2013-07-13 20:51:00,
2013-07-13 15:56:00,72.5,69.4,29.86,SE,130,7.0,20.0,90,0.00,,SKC,0.28,VWS V14.01,2013-07-13 20:56:00,
2013-07-13 16:00:00,71.1,68.7,29.84,East,96,18.0,18.0,92,0.00,,SKC,0.28,VWS V14.01,2013-07-13 21:00:00,
2013-07-13 16:01:00,72.7,69.3,29.87,SE,139,4.0,6.0,89,0.00,,SKC,0.28,VWS V14.01,2013-07-13 21:01:00,
2013-07-13 16:06:00,72.9,69.5,29.87,SE,140,1.0,8.0,89,0.00,,SKC,0.28,VWS V14.01,2013-07-13 21:06:00,
2013-07-13 16:11:00,73.0,69.6,29.87,SE,137,5.0,8.0,89,0.00,,SKC,0.28,VWS V14.01,2013-07-13 21:11:00,
2013-07-13 16:16:00,73.1,69.3,29.87,SE,138,5.0,8.0,88,0.00,,SKC,0.28,VWS V14.01,2013-07-13 21:16:00,
2013-07-13 16:21:00,73.2,69.4,29.87,SE,138,5.0,8.0,88,0.00,,SKC,0.28,VWS V14.01,2013-07-13 21:21:00,
2013-07-13 16:26:00,73.2,69.4,29.87,SE,138,0.0,8.0,88,0.00,,SKC,0.28,VWS V14.01,2013-07-13 21:26:00,
2013-07-13 16:30:00,71.3,68.5,29.85,ESE,119,10.0,19.0,91,0.00,,SKC,0.28,VWS V14.01,2013-07-13 21:30:00,
2013-07-13 16:31:00,73.2,69.4,29.87,SE,138,5.0,7.0,88,0.00,,SKC,0.28,VWS V14.01,2013-07-13 21:31:00,
2013-07-13 16:36:00,73.2,69.1,29.87,SE,139,4.0,7.0,87,0.00,,SKC,0.28,VWS V14.01,2013-07-13 21:36:00,
2013-07-13 16:41:00,73.3,69.5,29.87,SE,139,2.0,7.0,88,0.00,,SKC,0.28,VWS V14.01,2013-07-13 21:41:00,
2013-07-13 16:46:00,73.3,69.5,29.87,SE,139,4.0,8.0,88,0.00,,SKC,0.28,VWS V14.01,2013-07-13 21:46:00,
2013-07-13 16:51:00,73.3,69.5,29.87,SE,139,6.0,8.0,88,0.00,,SKC,0.28,VWS V14.01,2013-07-13 21:51:00,
2013-07-13 16:56:00,73.3,69.2,29.87,SE,134,7.0,8.0,87,0.00,,SKC,0.28,VWS V14.01,2013-07-13 21:56:00,
2013-07-13 17:00:00,72.7,69.6,29.87,SE,139,6.0,20.0,90,0.00,,SKC,0.28,VWS V14.01,2013-07-13 22:00:00,
2013-07-13 17:01:00,73.4,69.3,29.87,SE,132,8.0,8.0,87,0.00,,SKC,0.28,VWS V14.01,2013-07-13 22:01:00,
2013-07-13 17:06:00,73.4,69.3,29.86,SE,134,5.0,8.0,87,0.00,,SKC,0.28,VWS V14.01,2013-07-13 22:06:00,
2013-07-13 17:11:00,73.4,69.3,29.87,SE,134,7.0,8.0,87,0.00,,SKC,0.28,VWS V14.01,2013-07-13 22:11:00,
2013-07-13 17:16:00,73.4,69.0,29.87,SE,136,6.0,8.0,86,0.00,,SKC,0.28,VWS V14.01,2013-07-13 22:16:00,
2013-07-13 17:21:00,73.4,69.0,29.87,SE,134,7.0,10.0,86,0.00,,SKC,0.28,VWS V14.01,2013-07-13 22:21:00,
2013-07-13 17:26:00,73.4,69.0,29.87,SE,138,6.0,11.0,86,0.00,,SKC,0.28,VWS V14.01,2013-07-13 22:26:00,
2013-07-13 17:30:00,73.2,69.4,29.87,SE,138,2.0,8.0,88,0.00,,SKC,0.28,VWS V14.01,2013-07-13 22:30:00,
2013-07-13 17:32:00,73.5,69.4,29.87,SE,139,4.0,6.0,87,0.00,,SKC,0.28,VWS V14.01,2013-07-13 22:32:00,
2013-07-13 17:37:00,73.5,69.1,29.87,SE,138,6.0,9.0,86,0.00,,SKC,0.28,VWS V14.01,2013-07-13 22:37:00,
2013-07-13 17:42:00,73.5,68.7,29.87,SE,130,7.0,10.0,85,0.00,,SKC,0.28,VWS V14.01,2013-07-13 22:42:00,
2013-07-13 17:47:00,73.5,68.7,29.87,SE,139,6.0,12.0,85,0.00,,SKC,0.28,VWS V14.01,2013-07-13 22:47:00,
2013-07-13 17:52:00,73.6,68.5,29.87,SE,134,0.0,12.0,84,0.00,,SKC,0.28,VWS V14.01,2013-07-13 22:52:00,
2013-07-13 17:57:00,73.6,67.8,29.87,SE,142,6.0,12.0,82,0.00,,SKC,0.28,VWS V14.01,2013-07-13 22:57:00,
2013-07-13 18:00:00,73.4,69.3,29.86,SE,133,7.0,8.0,87,0.00,,SKC,0.28,VWS V14.01,2013-07-13 23:00:00,
2013-07-13 18:02:00,73.7,67.9,29.87,SE,126,3.0,9.0,82,0.00,,SKC,0.28,VWS V14.01,2013-07-13 23:02:00,
2013-07-13 18:07:00,73.7,67.9,29.87,SE,136,0.0,10.0,82,0.00,,SKC,0.28,VWS V14.01,2013-07-13 23:07:00,
2013-07-13 18:12:00,73.6,67.8,29.87,SE,137,0.0,10.0,82,0.00,,SKC,0.28,VWS V14.01,2013-07-13 23:12:00,
2013-07-13 18:17:00,73.6,67.8,29.87,SE,137,6.0,10.0,82,0.00,,SKC,0.28,VWS V14.01,2013-07-13 23:17:00,
2013-07-13 18:22:00,73.5,67.7,29.87,SE,136,5.0,10.0,82,0.00,,SKC,0.28,VWS V14.01,2013-07-13 23:22:00,
2013-07-13 18:27:00,73.5,67.7,29.87,SSE,148,4.0,11.0,82,0.00,,SKC,0.28,VWS V14.01,2013-07-13 23:27:00,
2013-07-13 18:30:00,73.5,69.1,29.87,SE,138,6.0,11.0,86,0.00,,SKC,0.28,VWS V14.01,2013-07-13 23:30:00,
2013-07-13 18:32:00,73.4,67.9,29.87,SE,146,4.0,7.0,83,0.00,,SKC,0.28,VWS V14.01,2013-07-13 23:32:00,
2013-07-13 18:37:00,73.3,67.8,29.87,SE,142,8.0,10.0,83,0.00,,SKC,0.28,VWS V14.01,2013-07-13 23:37:00,
2013-07-13 18:42:00,73.3,68.2,29.87,SE,140,9.0,10.0,84,0.00,,SKC,0.28,VWS V14.01,2013-07-13 23:42:00,
2013-07-13 18:47:00,73.2,68.4,29.87,SE,140,5.0,10.0,85,0.00,,SKC,0.28,VWS V14.01,2013-07-13 23:47:00,
2013-07-13 18:52:00,73.1,68.3,29.87,SE,140,7.0,10.0,85,0.00,,SKC,0.28,VWS V14.01,2013-07-13 23:52:00,
2013-07-13 18:57:00,73.1,68.7,29.87,SE,137,9.0,10.0,86,0.00,,SKC,0.28,VWS V14.01,2013-07-13 23:57:00,
2013-07-13 19:00:00,73.7,67.9,29.87,SE,139,1.0,12.0,82,0.00,,SKC,0.28,VWS V14.01,2013-07-14 00:00:00,
2013-07-13 19:02:00,73.1,69.0,29.87,SE,127,7.0,11.0,87,0.00,,SKC,0.28,VWS V14.01,2013-07-14 00:02:00,
2013-07-13 19:07:00,73.2,68.8,29.87,SE,132,9.0,12.0,86,0.00,,SKC,0.28,VWS V14.01,2013-07-14 00:07:00,
2013-07-13 19:12:00,73.1,68.3,29.87,SE,132,7.0,13.0,85,0.00,,SKC,0.28,VWS V14.01,2013-07-14 00:12:00,
2013-07-13 19:17:00,73.1,68.7,29.87,SE,130,7.0,13.0,86,0.00,,SKC,0.28,VWS V14.01,2013-07-14 00:17:00,
2013-07-13 19:22:00,73.0,68.9,29.87,SE,128,9.0,13.0,87,0.00,,SKC,0.28,VWS V14.01,2013-07-14 00:22:00,
2013-07-13 19:27:00,72.8,68.7,29.87,SE,130,7.0,13.0,87,0.00,,SKC,0.28,VWS V14.01,2013-07-14 00:27:00,
2013-07-13 19:30:00,73.4,68.3,29.87,SE,146,6.0,11.0,84,0.00,,SKC,0.28,VWS V14.01,2013-07-14 00:30:00,
2013-07-13 19:32:00,72.6,68.5,29.87,SE,128,5.0,9.0,87,0.00,,SKC,0.28,VWS V14.01,2013-07-14 00:32:00,
2013-07-13 19:37:00,72.4,68.3,29.88,SE,136,8.0,10.0,87,0.00,,SKC,0.28,VWS V14.01,2013-07-14 00:37:00,
2013-07-13 19:42:00,72.2,67.8,29.87,SSE,149,8.0,11.0,86,0.00,,SKC,0.28,VWS V14.01,2013-07-14 00:42:00,
2013-07-13 19:47:00,72.1,67.3,29.87,SE,136,6.0,11.0,85,0.00,,SKC,0.28,VWS V14.01,2013-07-14 00:47:00,
2013-07-13 19:52:00,72.1,67.0,29.87,SE,133,10.0,11.0,84,0.00,,SKC,0.28,VWS V14.01,2013-07-14 00:52:00,
2013-07-13 19:58:00,72.1,67.0,29.88,SE,128,5.0,11.0,84,0.00,,SKC,0.28,VWS V14.01,2013-07-14 00:58:00,
2013-07-13 20:00:00,73.1,69.0,29.87,SE,134,8.0,10.0,87,0.00,,SKC,0.28,VWS V14.01,2013-07-14 01:00:00,
2013-07-13 20:03:00,72.1,67.0,29.88,SE,137,8.0,10.0,84,0.00,,SKC,0.28,VWS V14.01,2013-07-14 01:03:00,
2013-07-13 20:08:00,72.1,67.7,29.88,SE,131,6.0,10.0,86,0.00,,SKC,0.28,VWS V14.01,2013-07-14 01:08:00,
2013-07-13 20:13:00,72.0,67.6,29.87,SE,139,6.0,10.0,86,0.00,,SKC,0.28,VWS V14.01,2013-07-14 01:13:00,
2013-07-13 20:18:00,71.9,67.8,29.87,SE,134,7.0,10.0,87,0.00,,SKC,0.28,VWS V14.01,2013-07-14 01:18:00,
2013-07-13 20:23:00,71.8,67.4,29.87,SE,133,7.0,10.0,86,0.00,,SKC,0.28,VWS V14.01,2013-07-14 01:23:00,
2013-07-13 20:28:00,71.8,67.7,29.87,SE,131,6.0,10.0,87,0.00,,SKC,0.28,VWS V14.01,2013-07-14 01:28:00,
2013-07-13 20:30:00,72.7,68.6,29.87,SE,126,7.0,13.0,87,0.00,,SKC,0.28,VWS V14.01,2013-07-14 01:30:00,
2013-07-13 20:33:00,71.8,67.7,29.87,SE,126,6.0,10.0,87,0.00,,SKC,0.28,VWS V14.01,2013-07-14 01:33:00,
2013-07-13 20:38:00,71.8,67.4,29.87,SE,125,8.0,11.0,86,0.00,,SKC,0.28,VWS V14.01,2013-07-14 01:38:00,
2013-07-13 20:43:00,71.8,67.4,29.87,SE,130,9.0,11.0,86,0.00,,SKC,0.28,VWS V14.01,2013-07-14 01:43:00,
2013-07-13 20:48:00,71.8,67.4,29.87,SE,126,6.0,11.0,86,0.00,,SKC,0.28,VWS V14.01,2013-07-14 01:48:00,
2013-07-13 20:53:00,71.8,67.1,29.87,SE,133,10.0,11.0,85,0.00,,SKC,0.28,VWS V14.01,2013-07-14 01:53:00,
2013-07-13 20:58:00,71.8,66.7,29.87,SE,125,9.0,11.0,84,0.00,,SKC,0.28,VWS V14.01,2013-07-14 01:58:00,
2013-07-13 21:00:00,72.1,67.0,29.88,SE,130,7.0,11.0,84,0.00,,SKC,0.28,VWS V14.01,2013-07-14 02:00:00,
2013-07-13 21:03:00,71.8,66.7,29.87,SE,127,7.0,10.0,84,0.00,,SKC,0.28,VWS V14.01,2013-07-14 02:03:00,
2013-07-13 21:08:00,71.8,66.7,29.87,SE,124,6.0,10.0,84,0.00,,SKC,0.28,VWS V14.01,2013-07-14 02:08:00,
2013-07-13 21:13:00,71.7,66.6,29.87,ESE,123,7.0,10.0,84,0.00,,SKC,0.28,VWS V14.01,2013-07-14 02:13:00,
2013-07-13 21:18:00,71.6,66.5,29.87,ESE,123,6.0,10.0,84,0.00,,SKC,0.28,VWS V14.01,2013-07-14 02:18:00,
2013-07-13 21:23:00,71.5,66.4,29.87,ESE,123,6.0,10.0,84,0.00,,SKC,0.28,VWS V14.01,2013-07-14 02:23:00,
2013-07-13 21:28:00,71.4,66.3,29.88,ESE,123,7.0,10.0,84,0.00,,SKC,0.28,VWS V14.01,2013-07-14 02:28:00,
2013-07-13 21:30:00,71.8,68.1,29.87,SE,128,6.0,10.0,88,0.00,,SKC,0.28,VWS V14.01,2013-07-14 02:30:00,
2013-07-13 21:33:00,71.3,66.2,29.88,ESE,123,5.0,8.0,84,0.00,,SKC,0.28,VWS V14.01,2013-07-14 02:33:00,
2013-07-13 21:38:00,71.3,66.2,29.87,ESE,123,6.0,8.0,84,0.00,,SKC,0.28,VWS V14.01,2013-07-14 02:38:00,
2013-07-13 21:43:00,71.2,66.5,29.87,ESE,123,4.0,8.0,85,0.00,,SKC,0.28,VWS V14.01,2013-07-14 02:43:00,
2013-07-13 21:48:00,71.0,66.6,29.87,ESE,123,5.0,8.0,86,0.00,,SKC,0.28,VWS V14.01,2013-07-14 02:48:00,
2013-07-13 21:53:00,70.8,66.4,29.88,ESE,123,5.0,8.0,86,0.00,,SKC,0.28,VWS V14.01,2013-07-14 02:53:00,
2013-07-13 21:58:00,70.7,66.3,29.88,ESE,123,4.0,8.0,86,0.00,,SKC,0.28,VWS V14.01,2013-07-14 02:58:00,
2013-07-13 22:00:00,71.8,67.1,29.87,SE,128,7.0,11.0,85,0.00,,SKC,0.28,VWS V14.01,2013-07-14 03:00:00,
2013-07-13 22:03:00,70.6,66.2,29.88,ESE,123,5.0,6.0,86,0.00,,SKC,0.28,VWS V14.01,2013-07-14 03:03:00,
2013-07-13 22:08:00,70.5,66.4,29.89,ESE,123,5.0,7.0,87,0.00,,SKC,0.28,VWS V14.01,2013-07-14 03:08:00,
2013-07-13 22:13:00,70.4,66.3,29.89,ESE,123,4.0,7.0,87,0.00,,SKC,0.28,VWS V14.01,2013-07-14 03:13:00,
2013-07-13 22:18:00,70.4,66.3,29.89,ESE,123,4.0,7.0,87,0.00,,SKC,0.28,VWS V14.01,2013-07-14 03:18:00,
2013-07-13 22:23:00,70.3,65.9,29.89,ESE,123,5.0,7.0,86,0.00,,SKC,0.28,VWS V14.01,2013-07-14 03:23:00,
2013-07-13 22:28:00,70.3,66.2,29.89,ESE,123,4.0,7.0,87,0.00,,SKC,0.28,VWS V14.01,2013-07-14 03:28:00,
2013-07-13 22:30:00,71.4,66.3,29.87,ESE,123,6.0,10.0,84,0.00,,SKC,0.28,VWS V14.01,2013-07-14 03:30:00,
2013-07-13 22:34:00,70.2,66.2,29.89,ESE,123,4.0,6.0,87,0.00,,SKC,0.28,VWS V14.01,2013-07-14 03:34:00,
2013-07-13 22:39:00,70.2,65.8,29.90,ESE,123,4.0,6.0,86,0.00,,SKC,0.28,VWS V14.01,2013-07-14 03:39:00,
2013-07-13 22:44:00,70.1,66.1,29.90,ESE,123,4.0,6.0,87,0.00,,SKC,0.28,VWS V14.01,2013-07-14 03:44:00,
2013-07-13 22:49:00,70.0,65.6,29.90,ESE,123,5.0,6.0,86,0.00,,SKC,0.28,VWS V14.01,2013-07-14 03:49:00,
2013-07-13 22:54:00,70.0,66.0,29.90,ESE,123,4.0,6.0,87,0.00,,SKC,0.28,VWS V14.01,2013-07-14 03:54:00,
2013-07-13 22:59:00,70.0,66.0,29.90,ESE,123,4.0,6.0,87,0.00,,SKC,0.28,VWS V14.01,2013-07-14 03:59:00,
2013-07-13 23:00:00,70.6,66.2,29.88,ESE,123,4.0,8.0,86,0.00,,SKC,0.28,VWS V14.01,2013-07-14 04:00:00,
2013-07-13 23:01:00,69.9,65.9,29.90,ESE,123,4.0,5.0,87,0.00,,SKC,0.28,VWS V14.01,2013-07-14 04:01:00,
2013-07-13 23:03:00,69.9,65.9,29.90,ESE,123,4.0,6.0,87,0.00,,SKC,0.28,VWS V14.01,2013-07-14 04:03:00,
2013-07-13 23:05:00,69.9,65.5,29.91,ESE,123,4.0,6.0,86,0.00,,SKC,0.28,VWS V14.01,2013-07-14 04:05:00,
2013-07-13 23:07:00,69.9,65.9,29.90,ESE,123,5.0,6.0,87,0.00,,SKC,0.28,VWS V14.01,2013-07-14 04:07:00,
2013-07-13 23:12:00,69.8,65.4,29.90,ESE,123,5.0,6.0,86,0.00,,SKC,0.28,VWS V14.01,2013-07-14 04:12:00,
2013-07-13 23:17:00,69.8,65.4,29.91,ESE,123,4.0,6.0,86,0.00,,SKC,0.28,VWS V14.01,2013-07-14 04:17:00,
2013-07-13 23:19:00,69.8,65.4,29.91,ESE,123,4.0,6.0,86,0.00,,SKC,0.28,VWS V14.01,2013-07-14 04:19:00,
2013-07-13 23:24:00,69.8,65.8,29.91,ESE,123,4.0,6.0,87,0.00,,SKC,0.28,VWS V14.01,2013-07-14 04:24:00,
2013-07-13 23:29:00,69.7,65.7,29.91,ESE,123,4.0,6.0,87,0.00,,SKC,0.28,VWS V14.01,2013-07-14 04:29:00,
2013-07-13 23:30:00,70.3,66.2,29.89,ESE,123,6.0,7.0,87,0.00,,SKC,0.28,VWS V14.01,2013-07-14 04:30:00,
2013-07-13 23:34:00,69.7,65.7,29.91,ESE,123,4.0,6.0,87,0.00,,SKC,0.28,VWS V14.01,2013-07-14 04:34:00,
2013-07-13 23:39:00,69.6,65.6,29.91,ESE,123,2.0,6.0,87,0.00,,SKC,0.28,VWS V14.01,2013-07-14 04:39:00,
2013-07-13 23:44:00,69.6,65.2,29.92,ESE,123,3.0,6.0,86,0.00,,SKC,0.28,VWS V14.01,2013-07-14 04:44:00,
2013-07-13 23:49:00,69.5,65.5,29.91,ESE,123,3.0,6.0,87,0.00,,SKC,0.28,VWS V14.01,2013-07-14 04:49:00,
2013-07-13 23:54:00,69.5,65.5,29.92,ESE,123,2.0,6.0,87,0.00,,SKC,0.28,VWS V14.01,2013-07-14 04:54:00,
2013-07-13 23:59:00,69.5,65.5,29.92,ESE,123,4.0,6.0,87,0.00,,SKC,0.28,VWS V14.01,2013-07-14 04:59:00,